Tom Car — XCAJ3 — position and weather

sailwx.info

Track history (hours):
 
Tides and Currents Weather Stations Pressure Air Temp Water Temp Dewpoint Dewpoint Depression Visibility Wind Speed Wind Dir Waves Ship Positions

Tom Car

Last reported at 2017-Nov-18 00:58 UTC. Time now 2017-Nov-18 01:06 UTC.
Position N 19°12' W 096°08'.

Length 10 m.

Type: Pilot. MMSI: 345030093.

Date/timePositionNaut miles runAvg speedWind from/ knotsBaromVisibWave heightAir tempDewpointWater temp
2017-Nov-18 00:58N 19°12' W 096°08'0 0.0
2017-Nov-18 00:25N 19°12' W 096°08'0 0.0
2017-Nov-17 23:58N 19°12' W 096°08'0 0.0
2017-Nov-17 23:28N 19°12' W 096°08'0 0.0
2017-Nov-17 22:55N 19°12' W 096°08'0 0.0
2017-Nov-17 22:28N 19°12' W 096°08'0 0.0
2017-Nov-17 21:58N 19°12' W 096°08'0 0.0
2017-Nov-17 21:28N 19°12' W 096°08'0 0.0
2017-Nov-17 20:58N 19°12' W 096°08'2 4.3
2017-Nov-17 20:30N 19°14' W 096°09'2 4.4
2017-Nov-17 20:00N 19°12' W 096°07'3 5.2
2017-Nov-17 19:28N 19°11' W 096°04'3 6.4
2017-Nov-17 18:58N 19°12' W 096°08'1 1.6
2017-Nov-17 18:30N 19°13' W 096°08'1 1.5
2017-Nov-17 18:00N 19°12' W 096°08'3 5.9
2017-Nov-17 17:29N 19°12' W 096°05'3 5.5
2017-Nov-17 16:56N 19°12' W 096°08'0 0.0
2017-Nov-17 16:29N 19°12' W 096°08'1 1.2
2017-Nov-17 16:00N 19°12' W 096°08'0 0.6
2017-Nov-17 15:30N 19°12' W 096°08'1 1.3
2017-Nov-17 15:00N 19°13' W 096°08'1 1.7
2017-Nov-17 14:25N 19°12' W 096°08'4 8.2
2017-Nov-17 13:58N 19°12' W 096°04'4 7.6
2017-Nov-17 13:29N 19°12' W 096°08'0 0.0
2017-Nov-17 12:59N 19°12' W 096°08'0 0.0
2017-Nov-17 12:29N 19°12' W 096°08'0 0.0
2017-Nov-17 12:00N 19°12' W 096°08'0 0.0
2017-Nov-17 11:27N 19°12' W 096°08'0 0.0
2017-Nov-17 11:00N 19°12' W 096°08'0 0.0
2017-Nov-17 10:30N 19°12' W 096°08'0 0.0
2017-Nov-17 10:00N 19°12' W 096°08'0 0.0
2017-Nov-17 09:30N 19°12' W 096°08'0 0.0
2017-Nov-17 09:00N 19°12' W 096°08'0 0.0
2017-Nov-17 08:30N 19°12' W 096°08'0 0.0
2017-Nov-17 08:00N 19°12' W 096°08'1 1.9
2017-Nov-17 07:30N 19°12' W 096°07'0 0.3
2017-Nov-17 07:00N 19°12' W 096°07'1 2.4
2017-Nov-17 06:30N 19°12' W 096°08'0 0.6
2017-Nov-17 06:00N 19°12' W 096°08'1 0.2
2017-Nov-17 03:11N 19°12' W 096°07'1 6.2
2017-Nov-17 02:59N 19°13' W 096°08'1 1.9
2017-Nov-17 02:30N 19°12' W 096°08'0 0.0
2017-Nov-17 02:00N 19°12' W 096°08'0 0.0
2017-Nov-17 01:30N 19°12' W 096°08'0 0.0
2017-Nov-17 01:01N 19°12' W 096°08'0 0.0
2017-Nov-17 00:30N 19°12' W 096°08'0 0.9
2017-Nov-17 00:00N 19°12' W 096°08'0 0.9
2017-Nov-16 23:29N 19°12' W 096°08'0 0.0
2017-Nov-16 22:43N 19°12' W 096°08'0 0.0
2017-Nov-16 22:22N 19°12' W 096°08'0 0.0
2017-Nov-16 21:58N 19°12' W 096°08'0 0.0
2017-Nov-16 21:07N 19°12' W 096°08'0 0.0
2017-Nov-16 20:40N 19°12' W 096°08'0 0.0
2017-Nov-16 20:19N 19°12' W 096°08'0 0.0
2017-Nov-16 19:58N 19°12' W 096°08'0 0.0
2017-Nov-16 19:25N 19°12' W 096°08'0 0.0
2017-Nov-16 18:55N 19°12' W 096°08'0 0.0
2017-Nov-16 18:28N 19°12' W 096°08'0 0.5
2017-Nov-16 18:00N 19°12' W 096°08'0 0.5
2017-Nov-16 17:30N 19°12' W 096°08'0 0.0
2017-Nov-16 17:00N 19°12' W 096°08'0 0.8
2017-Nov-16 16:30N 19°12' W 096°08'1 1.9
2017-Nov-16 16:00N 19°12' W 096°07'3 6.9
2017-Nov-16 15:30N 19°11' W 096°03'4 8.1
2017-Nov-16 14:59N 19°12' W 096°08'0 0.0
2017-Nov-16 14:29N 19°12' W 096°08'0 0.0
2017-Nov-16 13:59N 19°12' W 096°08'0 0.5
2017-Nov-16 13:28N 19°12' W 096°08'0 0.0
2017-Nov-16 12:58N 19°12' W 096°08'0 0.0
2017-Nov-16 12:28N 19°12' W 096°08'0 0.0
2017-Nov-16 11:55N 19°12' W 096°08'0 0.0
2017-Nov-16 11:28N 19°12' W 096°08'0 0.0
2017-Nov-16 10:58N 19°12' W 096°08'0 0.0
2017-Nov-16 10:28N 19°12' W 096°08'0 0.0
2017-Nov-16 09:58N 19°12' W 096°08'0 0.0
2017-Nov-16 09:28N 19°12' W 096°08'0 0.0
2017-Nov-16 08:58N 19°12' W 096°08'0 0.0
2017-Nov-16 08:28N 19°12' W 096°08'0 0.0
2017-Nov-16 07:58N 19°12' W 096°08'0 0.0
2017-Nov-16 07:28N 19°12' W 096°08'0 0.0
2017-Nov-16 06:58N 19°12' W 096°08'0 0.0
2017-Nov-16 06:25N 19°12' W 096°08'0 0.0
2017-Nov-16 05:58N 19°12' W 096°08'0 0.2
2017-Nov-16 05:30N 19°12' W 096°08'2 3.5
2017-Nov-16 04:50N 19°12' W 096°05'3 7.7
2017-Nov-16 04:30N 19°12' W 096°08'0 0.6
2017-Nov-16 04:00N 19°12' W 096°08'0 0.0
2017-Nov-16 03:30N 19°12' W 096°08'0 0.0
2017-Nov-16 03:00N 19°12' W 096°08'0 0.0
2017-Nov-16 02:30N 19°12' W 096°08'0 0.0
2017-Nov-16 01:54N 19°12' W 096°08'0 0.0
2017-Nov-16 01:27N 19°12' W 096°08'0 0.0
2017-Nov-16 01:00N 19°12' W 096°08'0 0.0
2017-Nov-16 00:30N 19°12' W 096°08'0 0.0
2017-Nov-15 23:57N 19°12' W 096°08'0 0.0
2017-Nov-15 23:30N 19°12' W 096°08'0 0.0
2017-Nov-15 23:00N 19°12' W 096°08'0 0.0
2017-Nov-15 22:30N 19°12' W 096°08'0 0.0
2017-Nov-15 22:00N 19°12' W 096°08'0 0.0
2017-Nov-15 21:30N 19°12' W 096°08'0 0.0
2017-Nov-15 21:00N 19°12' W 096°08'0 0.0
2017-Nov-15 20:30N 19°12' W 096°08'0 0.0
2017-Nov-15 19:57N 19°12' W 096°08'0 0.0
2017-Nov-15 19:30N 19°12' W 096°08'0 0.0
2017-Nov-15 19:00N 19°12' W 096°08'0 0.0
2017-Nov-15 18:30N 19°12' W 096°08'0 0.0
2017-Nov-15 17:57N 19°12' W 096°08'0 0.0
2017-Nov-15 17:30N 19°12' W 096°08'0 0.0
2017-Nov-15 17:00N 19°12' W 096°08'0 0.0
2017-Nov-15 16:30N 19°12' W 096°08'0 0.0
2017-Nov-15 16:00N 19°12' W 096°08'0 0.0
2017-Nov-15 15:30N 19°12' W 096°08'0 0.0
2017-Nov-15 15:00N 19°12' W 096°08'0 0.0
2017-Nov-15 14:30N 19°12' W 096°08'1 2.3
2017-Nov-15 13:59N 19°12' W 096°06'0 0.3
2017-Nov-15 13:30N 19°12' W 096°06'2 3.9
2017-Nov-15 13:00N 19°13' W 096°08'1 1.4
2017-Nov-15 12:26N 19°12' W 096°08'0 0.0
2017-Nov-15 11:59N 19°12' W 096°08'0 0.0
2017-Nov-15 11:26N 19°12' W 096°08'0 0.0
2017-Nov-15 10:59N 19°12' W 096°08'0 0.0
2017-Nov-15 10:29N 19°12' W 096°08'0 0.0
2017-Nov-15 09:59N 19°12' W 096°08'0 0.0
2017-Nov-15 09:29N 19°12' W 096°08'0 0.0
2017-Nov-15 08:59N 19°12' W 096°08'0 0.0
2017-Nov-15 08:29N 19°12' W 096°08'0 0.0
2017-Nov-15 07:59N 19°12' W 096°08'0 0.0
2017-Nov-15 07:29N 19°12' W 096°08'0 0.0
2017-Nov-15 06:59N 19°12' W 096°08'0 0.0
2017-Nov-15 06:26N 19°12' W 096°08'0 0.0
2017-Nov-15 05:59N 19°12' W 096°08'0 0.0
2017-Nov-15 05:29N 19°12' W 096°08'0 0.0
2017-Nov-15 04:56N 19°12' W 096°08'0 0.0
2017-Nov-15 04:29N 19°12' W 096°08'0 0.0
2017-Nov-15 03:59N 19°12' W 096°08'1 1.2
2017-Nov-15 03:17N 19°13' W 096°08'1 4.9
2017-Nov-15 02:59N 19°12' W 096°07'2 4.8
2017-Nov-15 02:30N 19°12' W 096°04'3 6.1
2017-Nov-15 01:58N 19°12' W 096°08'1 1.6
2017-Nov-15 01:29N 19°13' W 096°08'0 0.9
2017-Nov-15 00:59N 19°12' W 096°08'4 7.6
2017-Nov-15 00:30N 19°11' W 096°04'3 6.1
2017-Nov-15 00:00N 19°12' W 096°07'0 0.8
2017-Nov-14 23:29N 19°12' W 096°08'0 0.0
2017-Nov-14 22:56N 19°12' W 096°08'0 0.8
2017-Nov-14 22:30N 19°12' W 096°08'0 0.8
2017-Nov-14 21:57N 19°13' W 096°08'4 8.0
2017-Nov-14 21:29N 19°12' W 096°04'3 6.4
2017-Nov-14 20:59N 19°12' W 096°08'0 0.0
2017-Nov-14 20:29N 19°12' W 096°08'0 0.0
2017-Nov-14 19:59N 19°12' W 096°08'0 0.0
2017-Nov-14 19:29N 19°12' W 096°08'3 6.4
2017-Nov-14 19:00N 19°12' W 096°05'3 5.7
2017-Nov-14 18:29N 19°12' W 096°08'1 1.8
2017-Nov-14 18:00N 19°13' W 096°08'1 1.9
2017-Nov-14 17:30N 19°12' W 096°08'0 0.0
2017-Nov-14 17:00N 19°12' W 096°08'0 0.5
2017-Nov-14 16:28N 19°12' W 096°08'0 0.0
2017-Nov-14 15:58N 19°12' W 096°08'0 0.0
2017-Nov-14 15:25N 19°12' W 096°08'0 0.0
2017-Nov-14 14:58N 19°12' W 096°08'0 0.0
2017-Nov-14 14:28N 19°12' W 096°08'0 0.0
2017-Nov-14 13:58N 19°12' W 096°08'0 0.0
2017-Nov-14 13:28N 19°12' W 096°08'0 0.0
2017-Nov-14 12:58N 19°12' W 096°08'0 0.0
2017-Nov-14 12:28N 19°12' W 096°08'0 0.0
2017-Nov-14 11:58N 19°12' W 096°08'0 0.0
2017-Nov-14 11:28N 19°12' W 096°08'0 0.0
2017-Nov-14 10:58N 19°12' W 096°08'0 0.0
2017-Nov-14 10:25N 19°12' W 096°08'0 0.0
2017-Nov-14 09:49N 19°12' W 096°08'0 0.0
2017-Nov-14 09:28N 19°12' W 096°08'0 0.0
2017-Nov-14 08:58N 19°12' W 096°08'0 0.0
2017-Nov-14 08:28N 19°12' W 096°08'0 0.0
2017-Nov-14 07:49N 19°12' W 096°08'0 0.0
2017-Nov-14 07:28N 19°12' W 096°08'0 0.0
2017-Nov-14 06:58N 19°12' W 096°08'0 0.0
2017-Nov-14 06:28N 19°12' W 096°08'0 0.0
2017-Nov-14 05:58N 19°12' W 096°08'0 0.0
2017-Nov-14 05:28N 19°12' W 096°08'0 0.0
2017-Nov-14 04:58N 19°12' W 096°08'0 0.0
2017-Nov-14 04:25N 19°12' W 096°08'0 0.0
2017-Nov-14 03:58N 19°12' W 096°08'0 0.0
2017-Nov-14 03:25N 19°12' W 096°08'0 0.0
2017-Nov-14 02:58N 19°12' W 096°08'0 0.6
2017-Nov-14 02:28N 19°12' W 096°08'0 0.0
2017-Nov-14 01:58N 19°12' W 096°08'0 0.0
2017-Nov-14 01:25N 19°12' W 096°08'0 0.0
2017-Nov-14 00:58N 19°12' W 096°08'0 0.0
2017-Nov-14 00:28N 19°12' W 096°08'0 0.0
2017-Nov-13 23:58N 19°12' W 096°08'0 0.4
2017-Nov-13 23:30N 19°12' W 096°08'0 0.9
2017-Nov-13 23:00N 19°12' W 096°08'0 0.5
2017-Nov-13 22:28N 19°12' W 096°08'0 0.6
2017-Nov-13 21:59N 19°12' W 096°08'0 0.0
2017-Nov-13 01:59N 19°12' W 096°08'3 4.6
2017-Nov-13 01:26N 19°12' W 096°05'2 4.2
2017-Nov-13 00:58N 19°12' W 096°07'1 2.0
2017-Nov-13 00:29N 19°12' W 096°08'0 0.8
2017-Nov-13 00:00N 19°12' W 096°08'2 4.9
2017-Nov-12 23:30N 19°12' W 096°05'2 4.9
2017-Nov-12 23:00N 19°12' W 096°08'0 0.0
2017-Nov-12 22:29N 19°12' W 096°08'0 0.0
2017-Nov-12 21:59N 19°12' W 096°08'0 0.0
2017-Nov-12 21:29N 19°12' W 096°08'0 0.0
2017-Nov-12 20:59N 19°12' W 096°08'0 0.0
2017-Nov-12 20:29N 19°12' W 096°08'0 0.0
2017-Nov-12 19:59N 19°12' W 096°08'0 0.0
2017-Nov-12 19:29N 19°12' W 096°08'0 0.0
2017-Nov-12 18:56N 19°12' W 096°08'0 0.0
2017-Nov-12 18:26N 19°12' W 096°08'0 0.0
2017-Nov-12 17:59N 19°12' W 096°08'0 0.0
2017-Nov-12 17:26N 19°12' W 096°08'0 0.0
2017-Nov-12 16:53N 19°12' W 096°08'0 0.0
2017-Nov-12 16:29N 19°12' W 096°08'1 1.1
2017-Nov-12 16:00N 19°12' W 096°08'1 0.9
2017-Nov-12 15:26N 19°12' W 096°08'0 0.0
2017-Nov-12 14:59N 19°12' W 096°08'4 7.4
2017-Nov-12 14:30N 19°11' W 096°04'4 6.6
2017-Nov-12 13:58N 19°12' W 096°08'0 0.0
2017-Nov-12 13:28N 19°12' W 096°08'0 0.0
2017-Nov-12 12:52N 19°12' W 096°08'1 2.3
2017-Nov-12 12:30N 19°13' W 096°08'1 1.9
2017-Nov-12 11:59N 19°12' W 096°07'3 6.5
2017-Nov-12 11:29N 19°12' W 096°04'4 6.9
2017-Nov-12 10:58N 19°12' W 096°08'0 0.6
2017-Nov-12 10:29N 19°12' W 096°08'0 0.0
2017-Nov-12 09:56N 19°12' W 096°08'0 0.0
2017-Nov-12 09:29N 19°12' W 096°08'0 0.0
2017-Nov-12 08:59N 19°12' W 096°08'0 0.0
2017-Nov-12 08:29N 19°12' W 096°08'0 0.0
2017-Nov-12 07:59N 19°12' W 096°08'0 0.0
2017-Nov-12 07:29N 19°12' W 096°08'0 0.0
2017-Nov-12 06:56N 19°12' W 096°08'0 0.0
2017-Nov-12 06:20N 19°12' W 096°08'0 0.0
2017-Nov-12 05:59N 19°12' W 096°08'0 0.0
2017-Nov-12 05:26N 19°12' W 096°08'0 0.0
2017-Nov-12 04:56N 19°12' W 096°08'0 0.0
2017-Nov-12 04:26N 19°12' W 096°08'0 0.0
2017-Nov-12 03:53N 19°12' W 096°08'0 0.0
2017-Nov-12 03:29N 19°12' W 096°08'0 0.0
2017-Nov-12 02:56N 19°12' W 096°08'0 0.0
2017-Nov-12 02:26N 19°12' W 096°08'0 0.0
2017-Nov-12 01:59N 19°12' W 096°08'0 0.0
2017-Nov-12 01:29N 19°12' W 096°08'0 0.0
2017-Nov-12 00:56N 19°12' W 096°08'0 0.0
2017-Nov-12 00:29N 19°12' W 096°08'0 0.0
2017-Nov-11 23:59N 19°12' W 096°08'0 0.0
2017-Nov-11 23:29N 19°12' W 096°08'0 0.0
2017-Nov-11 22:59N 19°12' W 096°08'0 0.0
2017-Nov-11 22:23N 19°12' W 096°08'0 0.0
2017-Nov-11 21:59N 19°12' W 096°08'0 0.0
2017-Nov-11 21:29N 19°12' W 096°08'0 0.0
2017-Nov-11 20:59N 19°12' W 096°08'0 0.0
2017-Nov-11 20:29N 19°12' W 096°08'0 0.0
2017-Nov-11 20:00N 19°12' W 096°08'0 0.5
2017-Nov-11 19:28N 19°12' W 096°08'0 0.0
2017-Nov-11 18:58N 19°12' W 096°08'0 0.0
2017-Nov-11 18:28N 19°12' W 096°08'0 0.0
2017-Nov-11 17:58N 19°12' W 096°08'0 0.0
2017-Nov-11 17:28N 19°12' W 096°08'0 0.0
2017-Nov-11 16:58N 19°12' W 096°08'0 0.0
2017-Nov-11 16:25N 19°12' W 096°08'0 0.0
2017-Nov-11 15:58N 19°12' W 096°08'0 0.0
2017-Nov-11 15:28N 19°12' W 096°08'0 0.0
2017-Nov-11 14:58N 19°12' W 096°08'1 2.1
2017-Nov-11 14:29N 19°13' W 096°08'1 1.9
2017-Nov-11 13:58N 19°12' W 096°08'4 8.6
2017-Nov-11 13:30N 19°11' W 096°03'4 7.8
2017-Nov-11 12:59N 19°12' W 096°08'0 0.5
2017-Nov-11 12:28N 19°12' W 096°08'3 5.7
2017-Nov-11 11:59N 19°12' W 096°05'0 0.6
2017-Nov-11 11:29N 19°12' W 096°05'3 5.5
2017-Nov-11 11:00N 19°12' W 096°08'0 0.6
2017-Nov-11 10:29N 19°12' W 096°08'0 0.0
2017-Nov-11 09:59N 19°12' W 096°08'0 0.0
2017-Nov-11 09:29N 19°12' W 096°08'0 0.0
2017-Nov-11 08:59N 19°12' W 096°08'0 0.0
2017-Nov-11 08:29N 19°12' W 096°08'0 0.0
2017-Nov-11 07:59N 19°12' W 096°08'0 0.0
2017-Nov-11 07:29N 19°12' W 096°08'0 0.0
2017-Nov-11 06:59N 19°12' W 096°08'0 0.0
2017-Nov-11 06:29N 19°12' W 096°08'0 0.0
2017-Nov-11 05:59N 19°12' W 096°08'0 0.0
2017-Nov-11 05:29N 19°12' W 096°08'0 0.0
2017-Nov-11 04:59N 19°12' W 096°08'0 0.0
2017-Nov-11 04:29N 19°12' W 096°08'3 4.8
2017-Nov-11 03:58N 19°12' W 096°05'2 4.1
2017-Nov-11 03:30N 19°12' W 096°07'1 1.7
2017-Nov-11 03:00N 19°12' W 096°08'0 0.8
2017-Nov-11 02:28N 19°12' W 096°08'0 0.0
2017-Nov-11 01:58N 19°12' W 096°08'0 0.0
2017-Nov-11 01:28N 19°12' W 096°08'0 0.0
2017-Nov-11 00:58N 19°12' W 096°08'0 0.0
2017-Nov-11 00:28N 19°12' W 096°08'0 0.0
2017-Nov-10 23:58N 19°12' W 096°08'0 0.0
2017-Nov-10 23:28N 19°12' W 096°08'0 0.0
2017-Nov-10 22:58N 19°12' W 096°08'0 0.0
2017-Nov-10 22:28N 19°12' W 096°08'1 3.1
2017-Nov-10 22:00N 19°12' W 096°06'1 1.4
2017-Nov-10 21:29N 19°12' W 096°07'1 1.5
2017-Nov-10 21:00N 19°12' W 096°08'0 0.0
2017-Nov-10 20:29N 19°12' W 096°08'0 0.6
2017-Nov-10 19:58N 19°12' W 096°08'0 0.2
2017-Nov-10 19:29N 19°12' W 096°08'0 0.6
2017-Nov-10 18:59N 19°12' W 096°08'0 0.0
2017-Nov-10 18:29N 19°12' W 096°08'0 0.0
2017-Nov-10 17:56N 19°12' W 096°08'1 1.1
2017-Nov-10 17:28N 19°12' W 096°07'1 1.1
2017-Nov-10 17:00N 19°12' W 096°08'3 5.4
2017-Nov-10 16:29N 19°12' W 096°05'1 1.7
2017-Nov-10 16:00N 19°12' W 096°04'2 3.3
2017-Nov-10 15:30N 19°12' W 096°06'2 4.0
2017-Nov-10 15:00N 19°12' W 096°08'3 6.6
2017-Nov-10 14:30N 19°12' W 096°04'3 6.3
2017-Nov-10 13:59N 19°12' W 096°08'0 0.0
2017-Nov-10 13:30N 19°12' W 096°08'0 0.5
2017-Nov-10 12:58N 19°12' W 096°08'0 0.0
2017-Nov-10 12:22N 19°12' W 096°08'0 0.0
2017-Nov-10 11:58N 19°12' W 096°08'0 0.0
2017-Nov-10 11:28N 19°12' W 096°08'0 0.0
2017-Nov-10 10:58N 19°12' W 096°08'0 0.0
2017-Nov-10 10:25N 19°12' W 096°08'0 0.0
2017-Nov-10 09:55N 19°12' W 096°08'0 0.0
2017-Nov-10 09:28N 19°12' W 096°08'0 0.0
2017-Nov-10 08:58N 19°12' W 096°08'0 0.0
2017-Nov-10 08:28N 19°12' W 096°08'0 0.0
2017-Nov-10 07:55N 19°12' W 096°08'0 0.0
2017-Nov-10 07:28N 19°12' W 096°08'0 0.0
2017-Nov-10 06:55N 19°12' W 096°08'0 0.0
2017-Nov-10 06:28N 19°12' W 096°08'0 0.0
2017-Nov-10 05:58N 19°12' W 096°08'0 0.0
2017-Nov-10 05:25N 19°12' W 096°08'0 0.0
2017-Nov-10 04:58N 19°12' W 096°08'0 0.0
2017-Nov-10 04:28N 19°12' W 096°08'0 0.0
2017-Nov-10 03:58N 19°12' W 096°08'0 0.0
2017-Nov-10 03:28N 19°12' W 096°08'0 0.0
2017-Nov-10 02:58N 19°12' W 096°08'0 0.0
2017-Nov-10 02:28N 19°12' W 096°08'0 0.0
2017-Nov-10 01:58N 19°12' W 096°08'0 0.0
2017-Nov-10 01:28N 19°12' W 096°08'0 0.0
2017-Nov-10 00:58N 19°12' W 096°08'0 0.0
2017-Nov-10 00:25N 19°12' W 096°08'0 0.0
2017-Nov-09 23:58N 19°12' W 096°08'0 0.0
2017-Nov-09 23:28N 19°12' W 096°08'0 0.0
2017-Nov-09 22:55N 19°12' W 096°08'0 0.0
2017-Nov-09 22:25N 19°12' W 096°08'0 0.0
2017-Nov-09 21:58N 19°12' W 096°08'0 0.0
2017-Nov-09 21:28N 19°12' W 096°08'0 0.6
2017-Nov-09 20:58N 19°12' W 096°08'0 0.0
2017-Nov-09 20:28N 19°12' W 096°08'0 0.4
2017-Nov-09 20:00N 19°12' W 096°08'2 4.0
2017-Nov-09 19:30N 19°12' W 096°06'2 2.8
2017-Nov-09 18:58N 19°12' W 096°04'2 3.4
2017-Nov-09 18:30N 19°12' W 096°06'2 3.7
2017-Nov-09 18:00N 19°12' W 096°08'0 0.0
2017-Nov-09 17:30N 19°12' W 096°08'0 0.4
2017-Nov-09 16:58N 19°12' W 096°08'0 0.0
2017-Nov-09 16:31N 19°12' W 096°08'0 0.0
2017-Nov-09 16:01N 19°12' W 096°08'0 0.0
2017-Nov-09 15:28N 19°12' W 096°08'0 0.0
2017-Nov-09 15:00N 19°12' W 096°08'0 0.0
2017-Nov-09 14:29N 19°12' W 096°08'0 0.0
2017-Nov-09 13:56N 19°12' W 096°08'3 7.5
2017-Nov-09 13:30N 19°11' W 096°04'3 6.5
2017-Nov-09 12:59N 19°12' W 096°08'0 0.0
2017-Nov-09 12:29N 19°12' W 096°08'0 0.0
2017-Nov-09 11:59N 19°12' W 096°08'0 0.0
2017-Nov-09 11:30N 19°12' W 096°08'0 0.0
2017-Nov-09 11:00N 19°12' W 096°08'0 0.0
2017-Nov-09 10:27N 19°12' W 096°08'0 0.0
2017-Nov-09 09:54N 19°12' W 096°08'0 0.0
2017-Nov-09 09:27N 19°12' W 096°08'0 0.0
2017-Nov-09 09:00N 19°12' W 096°08'0 0.0
2017-Nov-09 08:30N 19°12' W 096°08'2 4.0
2017-Nov-09 08:00N 19°12' W 096°06'2 3.1
2017-Nov-09 07:30N 19°12' W 096°07'1 1.0
2017-Nov-09 06:54N 19°12' W 096°08'0 0.8
2017-Nov-09 06:30N 19°12' W 096°08'0 0.0
2017-Nov-09 05:57N 19°12' W 096°08'0 0.0
2017-Nov-09 05:30N 19°12' W 096°08'0 0.0
2017-Nov-09 05:00N 19°12' W 096°08'0 0.0
2017-Nov-09 04:30N 19°12' W 096°08'0 0.0
2017-Nov-09 04:00N 19°12' W 096°08'0 0.0
2017-Nov-09 03:30N 19°12' W 096°08'0 0.0
2017-Nov-09 03:00N 19°12' W 096°08'0 0.0
2017-Nov-09 02:30N 19°12' W 096°08'0 0.0
2017-Nov-09 02:00N 19°12' W 096°08'0 0.0
2017-Nov-09 01:30N 19°12' W 096°08'0 0.0
2017-Nov-09 00:57N 19°12' W 096°08'0 0.0
2017-Nov-09 00:30N 19°12' W 096°08'0 0.0
2017-Nov-09 00:00N 19°12' W 096°08'0 0.0
2017-Nov-08 23:30N 19°12' W 096°08'0 0.0
2017-Nov-08 23:00N 19°12' W 096°08'0 0.0
2017-Nov-08 22:30N 19°12' W 096°08'0 0.0
2017-Nov-08 22:00N 19°12' W 096°08'0 0.0
2017-Nov-08 21:30N 19°12' W 096°08'0 0.1
2017-Nov-08 21:00N 19°12' W 096°08'0 0.1
2017-Nov-08 20:30N 19°12' W 096°08'0 0.1
2017-Nov-08 20:00N 19°12' W 096°08'0 0.0
2017-Nov-08 19:30N 19°12' W 096°08'0 0.7
2017-Nov-08 19:00N 19°12' W 096°08'0 0.1
2017-Nov-08 18:27N 19°12' W 096°08'0 0.0
2017-Nov-08 18:00N 19°12' W 096°08'0 0.0
2017-Nov-08 17:27N 19°12' W 096°08'0 0.0
2017-Nov-08 16:57N 19°12' W 096°08'0 0.0
2017-Nov-08 16:30N 19°12' W 096°08'0 0.0
2017-Nov-08 16:00N 19°12' W 096°08'0 0.0
2017-Nov-08 15:21N 19°12' W 096°08'0 0.0
2017-Nov-08 15:00N 19°12' W 096°08'0 0.0
2017-Nov-08 14:27N 19°12' W 096°08'0 0.9
2017-Nov-08 14:00N 19°12' W 096°07'1 1.5
2017-Nov-08 13:30N 19°12' W 096°07'1 2.3
2017-Nov-08 13:00N 19°12' W 096°08'0 0.5
2017-Nov-08 12:29N 19°12' W 096°08'0 0.1
2017-Nov-08 08:00N 19°12' W 096°08'1 1.1
2017-Nov-08 07:29N 19°13' W 096°08'0 0.1
2017-Nov-08 07:00N 19°13' W 096°08'5 9.3
2017-Nov-08 06:29N 19°12' W 096°03'4 8.9
2017-Nov-08 06:01N 19°12' W 096°08'0 0.0
2017-Nov-08 05:22N 19°12' W 096°08'0 0.0
2017-Nov-08 05:01N 19°12' W 096°08'0 0.0
2017-Nov-08 04:30N 19°12' W 096°08'0 0.0
2017-Nov-08 04:01N 19°12' W 096°08'0 0.0
2017-Nov-08 03:31N 19°12' W 096°08'0 0.0
2017-Nov-08 03:01N 19°12' W 096°08'1 1.3
2017-Nov-08 02:27N 19°13' W 096°08'1 1.6
2017-Nov-08 01:59N 19°12' W 096°08'3 5.8
2017-Nov-08 01:29N 19°11' W 096°05'3 5.8
2017-Nov-08 01:00N 19°12' W 096°08'  
Track history (hours):
 
Tides and Currents Weather Stations Pressure Air Temp Water Temp Dewpoint Dewpoint Depression Visibility Wind Speed Wind Dir Waves Ship Positions

Tom Car

Last reported at 2017-Nov-18 00:58 UTC. Time now 2017-Nov-18 01:06 UTC.
Position N 19°12' W 096°08'.

Length 10 m.

Type: Pilot. MMSI: 345030093.

Date/timePositionNaut miles runAvg speedWind from/ knotsBaromVisibWave heightAir tempDewpointWater temp
2017-Nov-18 00:58N 19°12' W 096°08'0 0.0
2017-Nov-18 00:25N 19°12' W 096°08'0 0.0
2017-Nov-17 23:58N 19°12' W 096°08'0 0.0
2017-Nov-17 23:28N 19°12' W 096°08'0 0.0
2017-Nov-17 22:55N 19°12' W 096°08'0 0.0
2017-Nov-17 22:28N 19°12' W 096°08'0 0.0
2017-Nov-17 21:58N 19°12' W 096°08'0 0.0
2017-Nov-17 21:28N 19°12' W 096°08'0 0.0
2017-Nov-17 20:58N 19°12' W 096°08'2 4.3
2017-Nov-17 20:30N 19°14' W 096°09'2 4.4
2017-Nov-17 20:00N 19°12' W 096°07'3 5.2
2017-Nov-17 19:28N 19°11' W 096°04'3 6.4
2017-Nov-17 18:58N 19°12' W 096°08'1 1.6
2017-Nov-17 18:30N 19°13' W 096°08'1 1.5
2017-Nov-17 18:00N 19°12' W 096°08'3 5.9
2017-Nov-17 17:29N 19°12' W 096°05'3 5.5
2017-Nov-17 16:56N 19°12' W 096°08'0 0.0
2017-Nov-17 16:29N 19°12' W 096°08'1 1.2
2017-Nov-17 16:00N 19°12' W 096°08'0 0.6
2017-Nov-17 15:30N 19°12' W 096°08'1 1.3
2017-Nov-17 15:00N 19°13' W 096°08'1 1.7
2017-Nov-17 14:25N 19°12' W 096°08'4 8.2
2017-Nov-17 13:58N 19°12' W 096°04'4 7.6
2017-Nov-17 13:29N 19°12' W 096°08'0 0.0
2017-Nov-17 12:59N 19°12' W 096°08'0 0.0
2017-Nov-17 12:29N 19°12' W 096°08'0 0.0
2017-Nov-17 12:00N 19°12' W 096°08'0 0.0
2017-Nov-17 11:27N 19°12' W 096°08'0 0.0
2017-Nov-17 11:00N 19°12' W 096°08'0 0.0
2017-Nov-17 10:30N 19°12' W 096°08'0 0.0
2017-Nov-17 10:00N 19°12' W 096°08'0 0.0
2017-Nov-17 09:30N 19°12' W 096°08'0 0.0
2017-Nov-17 09:00N 19°12' W 096°08'0 0.0
2017-Nov-17 08:30N 19°12' W 096°08'0 0.0
2017-Nov-17 08:00N 19°12' W 096°08'1 1.9
2017-Nov-17 07:30N 19°12' W 096°07'0 0.3
2017-Nov-17 07:00N 19°12' W 096°07'1 2.4
2017-Nov-17 06:30N 19°12' W 096°08'0 0.6
2017-Nov-17 06:00N 19°12' W 096°08'1 0.2
2017-Nov-17 03:11N 19°12' W 096°07'1 6.2
2017-Nov-17 02:59N 19°13' W 096°08'1 1.9
2017-Nov-17 02:30N 19°12' W 096°08'0 0.0
2017-Nov-17 02:00N 19°12' W 096°08'0 0.0
2017-Nov-17 01:30N 19°12' W 096°08'0 0.0
2017-Nov-17 01:01N 19°12' W 096°08'0 0.0
2017-Nov-17 00:30N 19°12' W 096°08'0 0.9
2017-Nov-17 00:00N 19°12' W 096°08'0 0.9
2017-Nov-16 23:29N 19°12' W 096°08'0 0.0
2017-Nov-16 22:43N 19°12' W 096°08'0 0.0
2017-Nov-16 22:22N 19°12' W 096°08'0 0.0
2017-Nov-16 21:58N 19°12' W 096°08'0 0.0
2017-Nov-16 21:07N 19°12' W 096°08'0 0.0
2017-Nov-16 20:40N 19°12' W 096°08'0 0.0
2017-Nov-16 20:19N 19°12' W 096°08'0 0.0
2017-Nov-16 19:58N 19°12' W 096°08'0 0.0
2017-Nov-16 19:25N 19°12' W 096°08'0 0.0
2017-Nov-16 18:55N 19°12' W 096°08'0 0.0
2017-Nov-16 18:28N 19°12' W 096°08'0 0.5
2017-Nov-16 18:00N 19°12' W 096°08'0 0.5
2017-Nov-16 17:30N 19°12' W 096°08'0 0.0
2017-Nov-16 17:00N 19°12' W 096°08'0 0.8
2017-Nov-16 16:30N 19°12' W 096°08'1 1.9
2017-Nov-16 16:00N 19°12' W 096°07'3 6.9
2017-Nov-16 15:30N 19°11' W 096°03'4 8.1
2017-Nov-16 14:59N 19°12' W 096°08'0 0.0
2017-Nov-16 14:29N 19°12' W 096°08'0 0.0
2017-Nov-16 13:59N 19°12' W 096°08'0 0.5
2017-Nov-16 13:28N 19°12' W 096°08'0 0.0
2017-Nov-16 12:58N 19°12' W 096°08'0 0.0
2017-Nov-16 12:28N 19°12' W 096°08'0 0.0
2017-Nov-16 11:55N 19°12' W 096°08'0 0.0
2017-Nov-16 11:28N 19°12' W 096°08'0 0.0
2017-Nov-16 10:58N 19°12' W 096°08'0 0.0
2017-Nov-16 10:28N 19°12' W 096°08'0 0.0
2017-Nov-16 09:58N 19°12' W 096°08'0 0.0
2017-Nov-16 09:28N 19°12' W 096°08'0 0.0
2017-Nov-16 08:58N 19°12' W 096°08'0 0.0
2017-Nov-16 08:28N 19°12' W 096°08'0 0.0
2017-Nov-16 07:58N 19°12' W 096°08'0 0.0
2017-Nov-16 07:28N 19°12' W 096°08'0 0.0
2017-Nov-16 06:58N 19°12' W 096°08'0 0.0
2017-Nov-16 06:25N 19°12' W 096°08'0 0.0
2017-Nov-16 05:58N 19°12' W 096°08'0 0.2
2017-Nov-16 05:30N 19°12' W 096°08'2 3.5
2017-Nov-16 04:50N 19°12' W 096°05'3 7.7
2017-Nov-16 04:30N 19°12' W 096°08'0 0.6
2017-Nov-16 04:00N 19°12' W 096°08'0 0.0
2017-Nov-16 03:30N 19°12' W 096°08'0 0.0
2017-Nov-16 03:00N 19°12' W 096°08'0 0.0
2017-Nov-16 02:30N 19°12' W 096°08'0 0.0
2017-Nov-16 01:54N 19°12' W 096°08'0 0.0
2017-Nov-16 01:27N 19°12' W 096°08'0 0.0
2017-Nov-16 01:00N 19°12' W 096°08'0 0.0
2017-Nov-16 00:30N 19°12' W 096°08'0 0.0
2017-Nov-15 23:57N 19°12' W 096°08'0 0.0
2017-Nov-15 23:30N 19°12' W 096°08'0 0.0
2017-Nov-15 23:00N 19°12' W 096°08'0 0.0
2017-Nov-15 22:30N 19°12' W 096°08'0 0.0
2017-Nov-15 22:00N 19°12' W 096°08'0 0.0
2017-Nov-15 21:30N 19°12' W 096°08'0 0.0
2017-Nov-15 21:00N 19°12' W 096°08'0 0.0
2017-Nov-15 20:30N 19°12' W 096°08'0 0.0
2017-Nov-15 19:57N 19°12' W 096°08'0 0.0
2017-Nov-15 19:30N 19°12' W 096°08'0 0.0
2017-Nov-15 19:00N 19°12' W 096°08'0 0.0
2017-Nov-15 18:30N 19°12' W 096°08'0 0.0
2017-Nov-15 17:57N 19°12' W 096°08'0 0.0
2017-Nov-15 17:30N 19°12' W 096°08'0 0.0
2017-Nov-15 17:00N 19°12' W 096°08'0 0.0
2017-Nov-15 16:30N 19°12' W 096°08'0 0.0
2017-Nov-15 16:00N 19°12' W 096°08'0 0.0
2017-Nov-15 15:30N 19°12' W 096°08'0 0.0
2017-Nov-15 15:00N 19°12' W 096°08'0 0.0
2017-Nov-15 14:30N 19°12' W 096°08'1 2.3
2017-Nov-15 13:59N 19°12' W 096°06'0 0.3
2017-Nov-15 13:30N 19°12' W 096°06'2 3.9
2017-Nov-15 13:00N 19°13' W 096°08'1 1.4
2017-Nov-15 12:26N 19°12' W 096°08'0 0.0
2017-Nov-15 11:59N 19°12' W 096°08'0 0.0
2017-Nov-15 11:26N 19°12' W 096°08'0 0.0
2017-Nov-15 10:59N 19°12' W 096°08'0 0.0
2017-Nov-15 10:29N 19°12' W 096°08'0 0.0
2017-Nov-15 09:59N 19°12' W 096°08'0 0.0
2017-Nov-15 09:29N 19°12' W 096°08'0 0.0
2017-Nov-15 08:59N 19°12' W 096°08'0 0.0
2017-Nov-15 08:29N 19°12' W 096°08'0 0.0
2017-Nov-15 07:59N 19°12' W 096°08'0 0.0
2017-Nov-15 07:29N 19°12' W 096°08'0 0.0
2017-Nov-15 06:59N 19°12' W 096°08'0 0.0
2017-Nov-15 06:26N 19°12' W 096°08'0 0.0
2017-Nov-15 05:59N 19°12' W 096°08'0 0.0
2017-Nov-15 05:29N 19°12' W 096°08'0 0.0
2017-Nov-15 04:56N 19°12' W 096°08'0 0.0
2017-Nov-15 04:29N 19°12' W 096°08'0 0.0
2017-Nov-15 03:59N 19°12' W 096°08'1 1.2
2017-Nov-15 03:17N 19°13' W 096°08'1 4.9
2017-Nov-15 02:59N 19°12' W 096°07'2 4.8
2017-Nov-15 02:30N 19°12' W 096°04'3 6.1
2017-Nov-15 01:58N 19°12' W 096°08'1 1.6
2017-Nov-15 01:29N 19°13' W 096°08'0 0.9
2017-Nov-15 00:59N 19°12' W 096°08'4 7.6
2017-Nov-15 00:30N 19°11' W 096°04'3 6.1
2017-Nov-15 00:00N 19°12' W 096°07'0 0.8
2017-Nov-14 23:29N 19°12' W 096°08'0 0.0
2017-Nov-14 22:56N 19°12' W 096°08'0 0.8
2017-Nov-14 22:30N 19°12' W 096°08'0 0.8
2017-Nov-14 21:57N 19°13' W 096°08'4 8.0
2017-Nov-14 21:29N 19°12' W 096°04'3 6.4
2017-Nov-14 20:59N 19°12' W 096°08'0 0.0
2017-Nov-14 20:29N 19°12' W 096°08'0 0.0
2017-Nov-14 19:59N 19°12' W 096°08'0 0.0
2017-Nov-14 19:29N 19°12' W 096°08'3 6.4
2017-Nov-14 19:00N 19°12' W 096°05'3 5.7
2017-Nov-14 18:29N 19°12' W 096°08'1 1.8
2017-Nov-14 18:00N 19°13' W 096°08'1 1.9
2017-Nov-14 17:30N 19°12' W 096°08'0 0.0
2017-Nov-14 17:00N 19°12' W 096°08'0 0.5
2017-Nov-14 16:28N 19°12' W 096°08'0 0.0
2017-Nov-14 15:58N 19°12' W 096°08'0 0.0
2017-Nov-14 15:25N 19°12' W 096°08'0 0.0
2017-Nov-14 14:58N 19°12' W 096°08'0 0.0
2017-Nov-14 14:28N 19°12' W 096°08'0 0.0
2017-Nov-14 13:58N 19°12' W 096°08'0 0.0
2017-Nov-14 13:28N 19°12' W 096°08'0 0.0
2017-Nov-14 12:58N 19°12' W 096°08'0 0.0
2017-Nov-14 12:28N 19°12' W 096°08'0 0.0
2017-Nov-14 11:58N 19°12' W 096°08'0 0.0
2017-Nov-14 11:28N 19°12' W 096°08'0 0.0
2017-Nov-14 10:58N 19°12' W 096°08'0 0.0
2017-Nov-14 10:25N 19°12' W 096°08'0 0.0
2017-Nov-14 09:49N 19°12' W 096°08'0 0.0
2017-Nov-14 09:28N 19°12' W 096°08'0 0.0
2017-Nov-14 08:58N 19°12' W 096°08'0 0.0
2017-Nov-14 08:28N 19°12' W 096°08'0 0.0
2017-Nov-14 07:49N 19°12' W 096°08'0 0.0
2017-Nov-14 07:28N 19°12' W 096°08'0 0.0
2017-Nov-14 06:58N 19°12' W 096°08'0 0.0
2017-Nov-14 06:28N 19°12' W 096°08'0 0.0
2017-Nov-14 05:58N 19°12' W 096°08'0 0.0
2017-Nov-14 05:28N 19°12' W 096°08'0 0.0
2017-Nov-14 04:58N 19°12' W 096°08'0 0.0
2017-Nov-14 04:25N 19°12' W 096°08'0 0.0
2017-Nov-14 03:58N 19°12' W 096°08'0 0.0
2017-Nov-14 03:25N 19°12' W 096°08'0 0.0
2017-Nov-14 02:58N 19°12' W 096°08'0 0.6
2017-Nov-14 02:28N 19°12' W 096°08'0 0.0
2017-Nov-14 01:58N 19°12' W 096°08'0 0.0
2017-Nov-14 01:25N 19°12' W 096°08'0 0.0
2017-Nov-14 00:58N 19°12' W 096°08'0 0.0
2017-Nov-14 00:28N 19°12' W 096°08'0 0.0
2017-Nov-13 23:58N 19°12' W 096°08'0 0.4
2017-Nov-13 23:30N 19°12' W 096°08'0 0.9
2017-Nov-13 23:00N 19°12' W 096°08'0 0.5
2017-Nov-13 22:28N 19°12' W 096°08'0 0.6
2017-Nov-13 21:59N 19°12' W 096°08'0 0.0
2017-Nov-13 01:59N 19°12' W 096°08'3 4.6
2017-Nov-13 01:26N 19°12' W 096°05'2 4.2
2017-Nov-13 00:58N 19°12' W 096°07'1 2.0
2017-Nov-13 00:29N 19°12' W 096°08'0 0.8
2017-Nov-13 00:00N 19°12' W 096°08'2 4.9
2017-Nov-12 23:30N 19°12' W 096°05'2 4.9
2017-Nov-12 23:00N 19°12' W 096°08'0 0.0
2017-Nov-12 22:29N 19°12' W 096°08'0 0.0
2017-Nov-12 21:59N 19°12' W 096°08'0 0.0
2017-Nov-12 21:29N 19°12' W 096°08'0 0.0
2017-Nov-12 20:59N 19°12' W 096°08'0 0.0
2017-Nov-12 20:29N 19°12' W 096°08'0 0.0
2017-Nov-12 19:59N 19°12' W 096°08'0 0.0
2017-Nov-12 19:29N 19°12' W 096°08'0 0.0
2017-Nov-12 18:56N 19°12' W 096°08'0 0.0
2017-Nov-12 18:26N 19°12' W 096°08'0 0.0
2017-Nov-12 17:59N 19°12' W 096°08'0 0.0
2017-Nov-12 17:26N 19°12' W 096°08'0 0.0
2017-Nov-12 16:53N 19°12' W 096°08'0 0.0
2017-Nov-12 16:29N 19°12' W 096°08'1 1.1
2017-Nov-12 16:00N 19°12' W 096°08'1 0.9
2017-Nov-12 15:26N 19°12' W 096°08'0 0.0
2017-Nov-12 14:59N 19°12' W 096°08'4 7.4
2017-Nov-12 14:30N 19°11' W 096°04'4 6.6
2017-Nov-12 13:58N 19°12' W 096°08'0 0.0
2017-Nov-12 13:28N 19°12' W 096°08'0 0.0
2017-Nov-12 12:52N 19°12' W 096°08'1 2.3
2017-Nov-12 12:30N 19°13' W 096°08'1 1.9
2017-Nov-12 11:59N 19°12' W 096°07'3 6.5
2017-Nov-12 11:29N 19°12' W 096°04'4 6.9
2017-Nov-12 10:58N 19°12' W 096°08'0 0.6
2017-Nov-12 10:29N 19°12' W 096°08'0 0.0
2017-Nov-12 09:56N 19°12' W 096°08'0 0.0
2017-Nov-12 09:29N 19°12' W 096°08'0 0.0
2017-Nov-12 08:59N 19°12' W 096°08'0 0.0
2017-Nov-12 08:29N 19°12' W 096°08'0 0.0
2017-Nov-12 07:59N 19°12' W 096°08'0 0.0
2017-Nov-12 07:29N 19°12' W 096°08'0 0.0
2017-Nov-12 06:56N 19°12' W 096°08'0 0.0
2017-Nov-12 06:20N 19°12' W 096°08'0 0.0
2017-Nov-12 05:59N 19°12' W 096°08'0 0.0
2017-Nov-12 05:26N 19°12' W 096°08'0 0.0
2017-Nov-12 04:56N 19°12' W 096°08'0 0.0
2017-Nov-12 04:26N 19°12' W 096°08'0 0.0
2017-Nov-12 03:53N 19°12' W 096°08'0 0.0
2017-Nov-12 03:29N 19°12' W 096°08'0 0.0
2017-Nov-12 02:56N 19°12' W 096°08'0 0.0
2017-Nov-12 02:26N 19°12' W 096°08'0 0.0
2017-Nov-12 01:59N 19°12' W 096°08'0 0.0
2017-Nov-12 01:29N 19°12' W 096°08'0 0.0
2017-Nov-12 00:56N 19°12' W 096°08'0 0.0
2017-Nov-12 00:29N 19°12' W 096°08'0 0.0
2017-Nov-11 23:59N 19°12' W 096°08'0 0.0
2017-Nov-11 23:29N 19°12' W 096°08'0 0.0
2017-Nov-11 22:59N 19°12' W 096°08'0 0.0
2017-Nov-11 22:23N 19°12' W 096°08'0 0.0
2017-Nov-11 21:59N 19°12' W 096°08'0 0.0
2017-Nov-11 21:29N 19°12' W 096°08'0 0.0
2017-Nov-11 20:59N 19°12' W 096°08'0 0.0
2017-Nov-11 20:29N 19°12' W 096°08'0 0.0
2017-Nov-11 20:00N 19°12' W 096°08'0 0.5
2017-Nov-11 19:28N 19°12' W 096°08'0 0.0
2017-Nov-11 18:58N 19°12' W 096°08'0 0.0
2017-Nov-11 18:28N 19°12' W 096°08'0 0.0
2017-Nov-11 17:58N 19°12' W 096°08'0 0.0
2017-Nov-11 17:28N 19°12' W 096°08'0 0.0
2017-Nov-11 16:58N 19°12' W 096°08'0 0.0
2017-Nov-11 16:25N 19°12' W 096°08'0 0.0
2017-Nov-11 15:58N 19°12' W 096°08'0 0.0
2017-Nov-11 15:28N 19°12' W 096°08'0 0.0
2017-Nov-11 14:58N 19°12' W 096°08'1 2.1
2017-Nov-11 14:29N 19°13' W 096°08'1 1.9
2017-Nov-11 13:58N 19°12' W 096°08'4 8.6
2017-Nov-11 13:30N 19°11' W 096°03'4 7.8
2017-Nov-11 12:59N 19°12' W 096°08'0 0.5
2017-Nov-11 12:28N 19°12' W 096°08'3 5.7
2017-Nov-11 11:59N 19°12' W 096°05'0 0.6
2017-Nov-11 11:29N 19°12' W 096°05'3 5.5
2017-Nov-11 11:00N 19°12' W 096°08'0 0.6
2017-Nov-11 10:29N 19°12' W 096°08'0 0.0
2017-Nov-11 09:59N 19°12' W 096°08'0 0.0
2017-Nov-11 09:29N 19°12' W 096°08'0 0.0
2017-Nov-11 08:59N 19°12' W 096°08'0 0.0
2017-Nov-11 08:29N 19°12' W 096°08'0 0.0
2017-Nov-11 07:59N 19°12' W 096°08'0 0.0
2017-Nov-11 07:29N 19°12' W 096°08'0 0.0
2017-Nov-11 06:59N 19°12' W 096°08'0 0.0
2017-Nov-11 06:29N 19°12' W 096°08'0 0.0
2017-Nov-11 05:59N 19°12' W 096°08'0 0.0
2017-Nov-11 05:29N 19°12' W 096°08'0 0.0
2017-Nov-11 04:59N 19°12' W 096°08'0 0.0
2017-Nov-11 04:29N 19°12' W 096°08'3 4.8
2017-Nov-11 03:58N 19°12' W 096°05'2 4.1
2017-Nov-11 03:30N 19°12' W 096°07'1 1.7
2017-Nov-11 03:00N 19°12' W 096°08'0 0.8
2017-Nov-11 02:28N 19°12' W 096°08'0 0.0
2017-Nov-11 01:58N 19°12' W 096°08'0 0.0
2017-Nov-11 01:28N 19°12' W 096°08'0 0.0
2017-Nov-11 00:58N 19°12' W 096°08'0 0.0
2017-Nov-11 00:28N 19°12' W 096°08'0 0.0
2017-Nov-10 23:58N 19°12' W 096°08'0 0.0
2017-Nov-10 23:28N 19°12' W 096°08'0 0.0
2017-Nov-10 22:58N 19°12' W 096°08'0 0.0
2017-Nov-10 22:28N 19°12' W 096°08'1 3.1
2017-Nov-10 22:00N 19°12' W 096°06'1 1.4
2017-Nov-10 21:29N 19°12' W 096°07'1 1.5
2017-Nov-10 21:00N 19°12' W 096°08'0 0.0
2017-Nov-10 20:29N 19°12' W 096°08'0 0.6
2017-Nov-10 19:58N 19°12' W 096°08'0 0.2
2017-Nov-10 19:29N 19°12' W 096°08'0 0.6
2017-Nov-10 18:59N 19°12' W 096°08'0 0.0
2017-Nov-10 18:29N 19°12' W 096°08'0 0.0
2017-Nov-10 17:56N 19°12' W 096°08'1 1.1
2017-Nov-10 17:28N 19°12' W 096°07'1 1.1
2017-Nov-10 17:00N 19°12' W 096°08'3 5.4
2017-Nov-10 16:29N 19°12' W 096°05'1 1.7
2017-Nov-10 16:00N 19°12' W 096°04'2 3.3
2017-Nov-10 15:30N 19°12' W 096°06'2 4.0
2017-Nov-10 15:00N 19°12' W 096°08'3 6.6
2017-Nov-10 14:30N 19°12' W 096°04'3 6.3
2017-Nov-10 13:59N 19°12' W 096°08'0 0.0
2017-Nov-10 13:30N 19°12' W 096°08'0 0.5
2017-Nov-10 12:58N 19°12' W 096°08'0 0.0
2017-Nov-10 12:22N 19°12' W 096°08'0 0.0
2017-Nov-10 11:58N 19°12' W 096°08'0 0.0
2017-Nov-10 11:28N 19°12' W 096°08'0 0.0
2017-Nov-10 10:58N 19°12' W 096°08'0 0.0
2017-Nov-10 10:25N 19°12' W 096°08'0 0.0
2017-Nov-10 09:55N 19°12' W 096°08'0 0.0
2017-Nov-10 09:28N 19°12' W 096°08'0 0.0
2017-Nov-10 08:58N 19°12' W 096°08'0 0.0
2017-Nov-10 08:28N 19°12' W 096°08'0 0.0
2017-Nov-10 07:55N 19°12' W 096°08'0 0.0
2017-Nov-10 07:28N 19°12' W 096°08'0 0.0
2017-Nov-10 06:55N 19°12' W 096°08'0 0.0
2017-Nov-10 06:28N 19°12' W 096°08'0 0.0
2017-Nov-10 05:58N 19°12' W 096°08'0 0.0
2017-Nov-10 05:25N 19°12' W 096°08'0 0.0
2017-Nov-10 04:58N 19°12' W 096°08'0 0.0
2017-Nov-10 04:28N 19°12' W 096°08'0 0.0
2017-Nov-10 03:58N 19°12' W 096°08'0 0.0
2017-Nov-10 03:28N 19°12' W 096°08'0 0.0
2017-Nov-10 02:58N 19°12' W 096°08'0 0.0
2017-Nov-10 02:28N 19°12' W 096°08'0 0.0
2017-Nov-10 01:58N 19°12' W 096°08'0 0.0
2017-Nov-10 01:28N 19°12' W 096°08'0 0.0
2017-Nov-10 00:58N 19°12' W 096°08'0 0.0
2017-Nov-10 00:25N 19°12' W 096°08'0 0.0
2017-Nov-09 23:58N 19°12' W 096°08'0 0.0
2017-Nov-09 23:28N 19°12' W 096°08'0 0.0
2017-Nov-09 22:55N 19°12' W 096°08'0 0.0
2017-Nov-09 22:25N 19°12' W 096°08'0 0.0
2017-Nov-09 21:58N 19°12' W 096°08'0 0.0
2017-Nov-09 21:28N 19°12' W 096°08'0 0.6
2017-Nov-09 20:58N 19°12' W 096°08'0 0.0
2017-Nov-09 20:28N 19°12' W 096°08'0 0.4
2017-Nov-09 20:00N 19°12' W 096°08'2 4.0
2017-Nov-09 19:30N 19°12' W 096°06'2 2.8
2017-Nov-09 18:58N 19°12' W 096°04'2 3.4
2017-Nov-09 18:30N 19°12' W 096°06'2 3.7
2017-Nov-09 18:00N 19°12' W 096°08'0 0.0
2017-Nov-09 17:30N 19°12' W 096°08'0 0.4
2017-Nov-09 16:58N 19°12' W 096°08'0 0.0
2017-Nov-09 16:31N 19°12' W 096°08'0 0.0
2017-Nov-09 16:01N 19°12' W 096°08'0 0.0
2017-Nov-09 15:28N 19°12' W 096°08'0 0.0
2017-Nov-09 15:00N 19°12' W 096°08'0 0.0
2017-Nov-09 14:29N 19°12' W 096°08'0 0.0
2017-Nov-09 13:56N 19°12' W 096°08'3 7.5
2017-Nov-09 13:30N 19°11' W 096°04'3 6.5
2017-Nov-09 12:59N 19°12' W 096°08'0 0.0
2017-Nov-09 12:29N 19°12' W 096°08'0 0.0
2017-Nov-09 11:59N 19°12' W 096°08'0 0.0
2017-Nov-09 11:30N 19°12' W 096°08'0 0.0
2017-Nov-09 11:00N 19°12' W 096°08'0 0.0
2017-Nov-09 10:27N 19°12' W 096°08'0 0.0
2017-Nov-09 09:54N 19°12' W 096°08'0 0.0
2017-Nov-09 09:27N 19°12' W 096°08'0 0.0
2017-Nov-09 09:00N 19°12' W 096°08'0 0.0
2017-Nov-09 08:30N 19°12' W 096°08'2 4.0
2017-Nov-09 08:00N 19°12' W 096°06'2 3.1
2017-Nov-09 07:30N 19°12' W 096°07'1 1.0
2017-Nov-09 06:54N 19°12' W 096°08'0 0.8
2017-Nov-09 06:30N 19°12' W 096°08'0 0.0
2017-Nov-09 05:57N 19°12' W 096°08'0 0.0
2017-Nov-09 05:30N 19°12' W 096°08'0 0.0
2017-Nov-09 05:00N 19°12' W 096°08'0 0.0
2017-Nov-09 04:30N 19°12' W 096°08'0 0.0
2017-Nov-09 04:00N 19°12' W 096°08'0 0.0
2017-Nov-09 03:30N 19°12' W 096°08'0 0.0
2017-Nov-09 03:00N 19°12' W 096°08'0 0.0
2017-Nov-09 02:30N 19°12' W 096°08'0 0.0
2017-Nov-09 02:00N 19°12' W 096°08'0 0.0
2017-Nov-09 01:30N 19°12' W 096°08'0 0.0
2017-Nov-09 00:57N 19°12' W 096°08'0 0.0
2017-Nov-09 00:30N 19°12' W 096°08'0 0.0
2017-Nov-09 00:00N 19°12' W 096°08'0 0.0
2017-Nov-08 23:30N 19°12' W 096°08'0 0.0
2017-Nov-08 23:00N 19°12' W 096°08'0 0.0
2017-Nov-08 22:30N 19°12' W 096°08'0 0.0
2017-Nov-08 22:00N 19°12' W 096°08'0 0.0
2017-Nov-08 21:30N 19°12' W 096°08'0 0.1
2017-Nov-08 21:00N 19°12' W 096°08'0 0.1
2017-Nov-08 20:30N 19°12' W 096°08'0 0.1
2017-Nov-08 20:00N 19°12' W 096°08'0 0.0
2017-Nov-08 19:30N 19°12' W 096°08'0 0.7
2017-Nov-08 19:00N 19°12' W 096°08'0 0.1
2017-Nov-08 18:27N 19°12' W 096°08'0 0.0
2017-Nov-08 18:00N 19°12' W 096°08'0 0.0
2017-Nov-08 17:27N 19°12' W 096°08'0 0.0
2017-Nov-08 16:57N 19°12' W 096°08'0 0.0
2017-Nov-08 16:30N 19°12' W 096°08'0 0.0
2017-Nov-08 16:00N 19°12' W 096°08'0 0.0
2017-Nov-08 15:21N 19°12' W 096°08'0 0.0
2017-Nov-08 15:00N 19°12' W 096°08'0 0.0
2017-Nov-08 14:27N 19°12' W 096°08'0 0.9
2017-Nov-08 14:00N 19°12' W 096°07'1 1.5
2017-Nov-08 13:30N 19°12' W 096°07'1 2.3
2017-Nov-08 13:00N 19°12' W 096°08'0 0.5
2017-Nov-08 12:29N 19°12' W 096°08'0 0.1
2017-Nov-08 08:00N 19°12' W 096°08'1 1.1
2017-Nov-08 07:29N 19°13' W 096°08'0 0.1
2017-Nov-08 07:00N 19°13' W 096°08'5 9.3
2017-Nov-08 06:29N 19°12' W 096°03'4 8.9
2017-Nov-08 06:01N 19°12' W 096°08'0 0.0
2017-Nov-08 05:22N 19°12' W 096°08'0 0.0
2017-Nov-08 05:01N 19°12' W 096°08'0 0.0
2017-Nov-08 04:30N 19°12' W 096°08'0 0.0
2017-Nov-08 04:01N 19°12' W 096°08'0 0.0
2017-Nov-08 03:31N 19°12' W 096°08'0 0.0
2017-Nov-08 03:01N 19°12' W 096°08'1 1.3
2017-Nov-08 02:27N 19°13' W 096°08'1 1.6
2017-Nov-08 01:59N 19°12' W 096°08'3 5.8
2017-Nov-08 01:29N 19°11' W 096°05'3 5.8
2017-Nov-08 01:00N 19°12' W 096°08'  

Dump ship's entire track history